Terminal Aerodrome Forecast
Issued by NWS

Home | Current Version | Previous Version | Text Only | Print | Product List | Glossary On
Versions: 1 2 3 4 5 6 7 8 9 10 11 12 13 14 15
000
FTUS45 KTFX 272337
TAFCTB
TAF
KCTB 272337Z 2800/2824 35007KT P6SM VCTS SCT040CB OVC060
      TEMPO 2800/2802 4SM -TSRA BKN030CB
     FM280200 29005KT P6SM BKN050
     FM281500 34012KT P6SM -SHRA BKN040
     FM282000 36014KT P6SM VCTS BKN040CB PROB30 2820/2824 VRB25G35KT
      3SM -TSRA BKN030CB=

USA.gov is the U.S. government's official web portal to all federal, state and local government web resources and services.